createdAt,value
2022-09-04T00:02:17.259Z,0.10
2022-09-04T00:04:53.563Z,0.13
2022-09-04T00:07:28.285Z,0.40
2022-09-04T00:10:02.807Z,0.20
2022-09-04T00:12:34.460Z,0.10
2022-09-04T00:15:08.438Z,0.75
2022-09-04T00:17:46.835Z,0.20
2022-09-04T00:20:32.179Z,0.00
2022-09-04T00:23:25.398Z,0.30
2022-09-04T00:25:57.427Z,0.10
2022-09-04T00:28:42.282Z,0.22
2022-09-04T00:31:37.161Z,0.20
2022-09-04T00:34:28.719Z,0.10
2022-09-04T00:37:01.323Z,0.55
2022-09-04T00:39:40.593Z,0.10
2022-09-04T00:42:27.041Z,0.20
2022-09-04T00:45:07.542Z,0.10
2022-09-04T00:48:03.201Z,0.17
2022-09-04T00:50:59.885Z,0.35
2022-09-04T00:53:26.750Z,0.20
2022-09-04T00:56:31.697Z,0.73
2022-09-04T00:59:15.073Z,0.10
2022-09-04T01:01:43.097Z,0.68
2022-09-04T01:04:30.055Z,0.10
2022-09-04T01:07:35.358Z,0.63
2022-09-04T01:10:05.049Z,0.10
2022-09-04T01:12:46.311Z,0.10
2022-09-04T01:15:16.754Z,0.10
2022-09-04T01:21:02.978Z,0.20
2022-09-04T01:26:30.466Z,0.10
2022-09-04T01:29:21.563Z,0.10
2022-09-04T01:32:08.636Z,0.10
2022-09-04T01:35:11.457Z,0.13
2022-09-04T01:38:12.499Z,0.05
2022-09-04T01:40:51.726Z,0.10
2022-09-04T01:43:22.342Z,0.40
2022-09-04T01:46:26.365Z,0.10
2022-09-04T01:49:24.761Z,0.30
2022-09-04T01:52:03.973Z,0.10
2022-09-04T01:54:47.002Z,0.10
2022-09-04T01:57:22.738Z,0.10
2022-09-04T02:00:01.320Z,0.10
2022-09-04T02:02:43.173Z,0.20
2022-09-04T02:05:17.696Z,0.10
2022-09-04T02:08:06.295Z,0.15
2022-09-04T02:10:50.074Z,0.10
2022-09-04T02:13:35.892Z,0.20
2022-09-04T02:16:42.794Z,0.30
2022-09-04T02:19:34.245Z,0.10
2022-09-04T02:22:28.344Z,0.10
2022-09-04T02:25:05.981Z,0.10
2022-09-04T02:27:46.688Z,0.10
2022-09-04T02:30:17.791Z,0.57
2022-09-04T02:33:12.471Z,0.15
2022-09-04T02:35:50.973Z,0.10
2022-09-04T02:38:20.630Z,0.10
2022-09-04T02:40:52.385Z,0.10
2022-09-04T02:43:28.255Z,0.10
2022-09-04T02:46:15.221Z,0.28
2022-09-04T02:48:53.857Z,0.13
2022-09-04T02:51:53.172Z,0.10
2022-09-04T02:55:11.345Z,0.10
2022-09-04T02:58:08.789Z,1.10
2022-09-04T03:00:48.192Z,0.20
2022-09-04T03:03:21.425Z,0.10
2022-09-04T03:06:04.462Z,0.10
2022-09-04T03:08:59.972Z,0.10
2022-09-04T03:11:35.815Z,0.10
2022-09-04T03:14:17.598Z,0.10
2022-09-04T03:16:50.302Z,0.10
2022-09-04T03:19:25.354Z,0.17
2022-09-04T03:22:11.225Z,0.17
2022-09-04T03:25:15.426Z,0.17
2022-09-04T03:27:42.191Z,0.10
2022-09-04T03:30:11.274Z,0.10
2022-09-04T03:33:06.137Z,0.10
2022-09-04T03:35:55.741Z,0.10
2022-09-04T03:38:27.599Z,0.30
2022-09-04T03:41:15.173Z,0.10
2022-09-04T03:44:24.848Z,0.20
2022-09-04T03:47:06.457Z,0.10
2022-09-04T03:49:40.883Z,0.15
2022-09-04T03:52:11.223Z,0.10
2022-09-04T03:55:08.985Z,0.20
2022-09-04T03:57:55.520Z,0.10
2022-09-04T04:00:22.985Z,0.10
2022-09-04T04:03:03.183Z,0.10
2022-09-04T04:05:39.957Z,0.38
2022-09-04T04:08:38.445Z,0.20
2022-09-04T04:11:20.444Z,0.30
2022-09-04T04:14:21.342Z,0.20
2022-09-04T04:17:04.822Z,0.10
2022-09-04T04:20:14.442Z,0.70
2022-09-04T04:22:59.149Z,0.30
2022-09-04T04:25:29.721Z,0.17
2022-09-04T04:30:54.878Z,0.32
2022-09-04T04:33:32.525Z,0.10
2022-09-04T04:36:35.796Z,0.43
2022-09-04T04:39:14.200Z,0.10
2022-09-04T04:42:18.459Z,0.15
2022-09-04T04:45:21.305Z,0.75
2022-09-04T04:48:24.287Z,0.30
2022-09-04T04:51:13.030Z,0.10
2022-09-04T04:54:16.874Z,0.10
2022-09-04T04:56:55.771Z,0.20
2022-09-04T04:59:55.784Z,0.30
2022-09-04T05:02:40.629Z,0.10
2022-09-04T05:05:18.442Z,0.20
2022-09-04T05:07:48.286Z,0.10
2022-09-04T05:10:26.054Z,0.00
2022-09-04T05:13:16.967Z,0.10
2022-09-04T05:16:29.040Z,0.10
2022-09-04T05:19:37.578Z,0.10
2022-09-04T05:22:22.975Z,0.10
2022-09-04T05:25:16.766Z,0.10
2022-09-04T05:28:21.797Z,0.15
2022-09-04T05:31:10.342Z,0.20
2022-09-04T05:34:14.634Z,0.15
2022-09-04T05:36:57.197Z,0.10
2022-09-04T05:39:34.974Z,0.20
2022-09-04T05:42:32.353Z,0.20
2022-09-04T05:45:08.799Z,0.10
2022-09-04T05:47:43.678Z,0.22
2022-09-04T05:50:31.532Z,0.30
2022-09-04T05:53:12.745Z,0.20
2022-09-04T05:55:42.075Z,0.10
2022-09-04T05:58:24.188Z,0.20
2022-09-04T06:01:09.470Z,0.10
2022-09-04T06:03:56.306Z,0.32
2022-09-04T06:06:29.916Z,0.10
2022-09-04T06:09:28.847Z,0.20
2022-09-04T06:12:19.521Z,0.10
2022-09-04T06:15:13.093Z,0.10
2022-09-04T06:17:45.830Z,0.20
2022-09-04T06:20:18.479Z,0.20
2022-09-04T06:23:15.906Z,0.10
2022-09-04T06:25:45.333Z,0.10
2022-09-04T06:28:27.302Z,0.10
2022-09-04T06:31:08.375Z,0.10
2022-09-04T06:33:43.914Z,0.20
2022-09-04T06:36:16.046Z,0.10
2022-09-04T06:38:54.338Z,0.10
2022-09-04T06:41:33.140Z,0.20
2022-09-04T06:44:22.760Z,0.10
2022-09-04T06:47:00.871Z,0.10
2022-09-04T06:49:36.865Z,0.20
2022-09-04T06:52:20.031Z,0.10
2022-09-04T06:55:01.193Z,0.20
2022-09-04T06:57:35.322Z,0.10
2022-09-04T07:00:11.005Z,0.10
2022-09-04T07:02:56.654Z,0.10
2022-09-04T07:05:38.230Z,0.10
2022-09-04T07:09:02.845Z,0.20
2022-09-04T07:11:39.220Z,0.10
2022-09-04T07:14:33.330Z,0.10
2022-09-04T07:17:08.646Z,0.20
2022-09-04T07:19:53.454Z,0.30
2022-09-04T07:22:41.526Z,0.70
2022-09-04T07:25:12.438Z,0.15
2022-09-04T07:28:01.188Z,0.10
2022-09-04T07:30:31.267Z,0.22
2022-09-04T07:33:06.903Z,0.10
2022-09-04T07:36:00.303Z,0.22
2022-09-04T07:38:45.351Z,0.20
2022-09-04T07:41:39.741Z,0.10
2022-09-04T07:44:43.880Z,0.10
2022-09-04T07:47:14.330Z,0.10
2022-09-04T07:52:27.053Z,0.20
2022-09-04T07:55:21.199Z,0.10
2022-09-04T07:57:54.074Z,0.20
2022-09-04T08:00:22.768Z,0.10
2022-09-04T08:03:20.689Z,0.20
2022-09-04T08:05:52.641Z,0.10
2022-09-04T08:08:50.935Z,0.20
2022-09-04T08:11:48.479Z,0.20
2022-09-04T08:14:26.964Z,0.10
2022-09-04T08:17:02.397Z,0.10
2022-09-04T08:19:29.089Z,0.10
2022-09-04T08:21:57.081Z,0.20
2022-09-04T08:24:56.135Z,0.10
2022-09-04T08:27:45.907Z,0.85
2022-09-04T08:30:14.932Z,0.10
2022-09-04T08:33:03.078Z,0.30
2022-09-04T08:36:24.742Z,0.50
2022-09-04T08:39:11.863Z,0.10
2022-09-04T08:41:56.554Z,0.10
2022-09-04T08:44:44.582Z,0.13
2022-09-04T08:47:23.489Z,0.30
2022-09-04T08:50:30.082Z,2.20
2022-09-04T08:53:18.791Z,0.30
2022-09-04T08:55:55.972Z,0.30
2022-09-04T08:58:56.311Z,0.30
2022-09-04T09:04:30.379Z,0.10
2022-09-04T09:07:30.599Z,0.20
2022-09-04T09:10:03.608Z,0.20
2022-09-04T09:12:49.202Z,0.28
2022-09-04T09:15:28.440Z,0.22
2022-09-04T09:18:01.361Z,2.10
2022-09-04T09:21:01.737Z,0.32
2022-09-04T09:24:03.562Z,0.80
2022-09-04T09:26:34.245Z,1.55
2022-09-04T09:29:29.102Z,0.60
2022-09-04T09:32:34.361Z,0.38
2022-09-04T09:35:13.180Z,0.70
2022-09-04T09:38:10.856Z,0.35
2022-09-04T09:41:15.098Z,0.38
2022-09-04T09:44:09.637Z,6.20
2022-09-04T09:46:48.325Z,0.32
2022-09-04T09:49:36.826Z,0.55
2022-09-04T09:52:13.990Z,0.43
2022-09-04T09:54:59.614Z,0.30
2022-09-04T09:57:46.727Z,0.20
2022-09-04T10:00:25.811Z,0.10
2022-09-04T10:03:14.145Z,0.20
2022-09-04T10:06:26.773Z,0.22
2022-09-04T10:09:30.885Z,0.13
2022-09-04T10:12:19.151Z,0.30
2022-09-04T10:15:04.067Z,0.40
2022-09-04T10:17:39.591Z,0.22
2022-09-04T10:20:34.337Z,0.38
2022-09-04T10:23:28.950Z,0.30
2022-09-04T10:25:58.595Z,0.60
2022-09-04T10:28:43.904Z,0.20
2022-09-04T10:31:38.730Z,1.67
2022-09-04T10:34:05.469Z,0.80
2022-09-04T10:37:10.988Z,0.22
2022-09-04T10:40:08.002Z,0.10
2022-09-04T10:42:47.147Z,0.10
2022-09-04T10:45:30.951Z,0.10
2022-09-04T10:48:26.600Z,0.20
2022-09-04T10:51:13.332Z,0.10
2022-09-04T10:53:42.924Z,0.47
2022-09-04T10:56:31.493Z,0.10
2022-09-04T10:59:21.248Z,0.22
2022-09-04T11:02:12.664Z,0.10
2022-09-04T11:04:45.733Z,0.40
2022-09-04T11:07:28.804Z,1.00
2022-09-04T11:10:42.900Z,0.30
2022-09-04T11:13:28.333Z,0.28
2022-09-04T11:16:32.489Z,0.63
2022-09-04T11:19:31.015Z,0.22
2022-09-04T11:22:08.682Z,0.28
2022-09-04T11:25:01.467Z,0.52
2022-09-04T11:27:56.271Z,0.30
2022-09-04T11:30:48.691Z,0.30
2022-09-04T11:33:39.046Z,0.82
2022-09-04T11:36:37.555Z,0.30
2022-09-04T11:39:26.165Z,0.20
2022-09-04T11:42:11.652Z,0.20
2022-09-04T11:44:48.223Z,0.25
2022-09-04T11:47:28.449Z,1.02
2022-09-04T11:50:10.510Z,0.10
2022-09-04T11:52:55.687Z,2.65
2022-09-04T11:55:49.482Z,1.00
2022-09-04T11:58:22.320Z,0.60
2022-09-04T12:01:10.214Z,0.20
2022-09-04T12:04:01.674Z,0.10
2022-09-04T12:06:28.466Z,0.25
2022-09-04T12:09:23.324Z,0.30
2022-09-04T12:11:59.273Z,0.20
2022-09-04T12:15:15.816Z,0.50
2022-09-04T12:18:32.247Z,0.30
2022-09-04T12:21:18.232Z,0.80
2022-09-04T12:24:22.201Z,0.20
2022-09-04T12:27:01.557Z,0.30
2022-09-04T12:29:43.335Z,0.20
2022-09-04T12:32:37.216Z,0.22
2022-09-04T12:35:39.405Z,0.30
2022-09-04T12:38:15.262Z,2.28
2022-09-04T12:40:41.947Z,0.20
2022-09-04T12:43:26.617Z,0.30
2022-09-04T12:46:10.796Z,0.30
2022-09-04T12:48:56.905Z,0.30
2022-09-04T12:51:25.275Z,1.95
2022-09-04T12:54:21.078Z,0.75
2022-09-04T12:57:06.682Z,0.25
2022-09-04T12:59:47.424Z,0.30
2022-09-04T13:02:57.290Z,0.17
2022-09-04T13:05:31.953Z,0.20
2022-09-04T13:08:26.349Z,0.55
2022-09-04T13:11:00.913Z,0.30
2022-09-04T13:13:55.595Z,0.20
2022-09-04T13:16:33.801Z,0.20
2022-09-04T13:19:25.117Z,0.20
2022-09-04T13:22:10.259Z,0.20
2022-09-04T13:24:51.415Z,0.40
2022-09-04T13:28:03.264Z,0.20
2022-09-04T13:30:32.065Z,0.30
2022-09-04T13:33:39.644Z,0.20
2022-09-04T13:36:45.659Z,0.35
2022-09-04T13:39:20.510Z,0.10
2022-09-04T13:42:28.849Z,0.20
2022-09-04T13:45:05.804Z,0.22
2022-09-04T13:48:01.950Z,0.20
2022-09-04T13:50:46.964Z,0.30
2022-09-04T13:53:31.007Z,0.20
2022-09-04T13:56:06.283Z,0.32
2022-09-04T13:58:49.608Z,2.08
2022-09-04T14:01:21.867Z,3.92
2022-09-04T14:03:53.524Z,0.30
2022-09-04T14:06:22.293Z,0.30
2022-09-04T14:09:04.408Z,0.20
2022-09-04T14:11:42.164Z,0.32
2022-09-04T14:14:30.917Z,1.67
2022-09-04T14:17:00.163Z,0.30
2022-09-04T14:19:32.993Z,0.47
2022-09-04T14:22:15.749Z,0.30
2022-09-04T14:25:11.940Z,0.30
2022-09-04T14:27:44.041Z,0.30
2022-09-04T14:30:15.593Z,0.70
2022-09-04T14:33:21.686Z,0.32
2022-09-04T14:36:02.453Z,0.20
2022-09-04T14:38:49.349Z,0.25
2022-09-04T14:41:43.992Z,0.30
2022-09-04T14:44:20.449Z,0.10
2022-09-04T14:47:03.612Z,0.28
2022-09-04T14:49:31.741Z,0.30
2022-09-04T14:52:10.978Z,0.13
2022-09-04T14:54:44.111Z,0.20
2022-09-04T14:57:42.248Z,0.38
2022-09-04T15:00:20.253Z,0.30
2022-09-04T15:03:08.047Z,0.20
2022-09-04T15:05:34.747Z,0.25
2022-09-04T15:08:03.021Z,0.95
2022-09-04T15:10:50.834Z,0.20
2022-09-04T15:13:35.253Z,0.15
2022-09-04T15:16:20.088Z,0.20
2022-09-04T15:19:28.375Z,0.20
2022-09-04T15:22:11.199Z,0.30
2022-09-04T15:25:00.359Z,0.20
2022-09-04T15:27:35.614Z,0.20
2022-09-04T15:30:05.241Z,0.47
2022-09-04T15:44:35.772Z,3.88
2022-09-04T15:47:23.383Z,4.80
2022-09-04T15:49:59.509Z,5.85
2022-09-04T15:52:51.103Z,6.87
2022-09-04T15:55:34.080Z,4.35
2022-09-04T15:58:24.188Z,9.15
2022-09-04T16:01:06.598Z,10.55
2022-09-04T16:03:45.598Z,11.13
2022-09-04T16:06:23.595Z,11.13
2022-09-04T16:08:54.621Z,12.70
2022-09-04T16:11:26.323Z,12.02
2022-09-04T16:14:05.882Z,11.85
2022-09-04T16:16:45.504Z,11.90
2022-09-04T16:19:22.566Z,11.65
2022-09-04T16:22:04.637Z,11.35
2022-09-04T16:24:43.669Z,10.52
2022-09-04T16:27:13.731Z,10.45
2022-09-04T16:29:41.587Z,10.30
2022-09-04T16:32:10.765Z,9.13
2022-09-04T16:34:44.014Z,8.55
2022-09-04T16:37:14.734Z,7.70
2022-09-04T16:40:19.168Z,7.68
2022-09-04T16:43:16.785Z,6.85
2022-09-04T16:45:49.974Z,6.60
2022-09-04T16:48:34.737Z,6.00
2022-09-04T16:51:09.830Z,5.70
2022-09-04T16:54:49.308Z,5.63
2022-09-04T16:57:19.141Z,1.40
2022-09-04T16:59:53.037Z,0.70
2022-09-04T17:02:41.895Z,0.30
2022-09-04T17:05:28.358Z,0.20
2022-09-04T17:08:02.809Z,0.20
2022-09-04T17:10:53.088Z,0.10
2022-09-04T17:13:36.933Z,0.10
2022-09-04T17:16:19.768Z,0.20
2022-09-04T17:18:54.188Z,0.30
2022-09-04T17:26:29.855Z,0.22
2022-09-04T17:29:15.232Z,0.45
2022-09-04T17:29:15.827Z,0.22
2022-09-04T17:30:40.254Z,0.10
2022-09-04T17:40:36.880Z,0.20
2022-09-04T17:40:42.622Z,0.10
2022-09-04T17:40:49.729Z,0.10
2022-09-04T17:43:14.819Z,0.10
2022-09-04T17:45:34.917Z,0.10
2022-09-04T17:48:19.764Z,0.10
2022-09-04T17:50:58.855Z,0.13
2022-09-04T17:53:34.034Z,0.20
2022-09-04T17:56:14.222Z,1.50
2022-09-04T17:58:48.819Z,0.20
2022-09-04T18:01:27.815Z,0.20
2022-09-04T18:04:21.077Z,0.50
2022-09-04T18:07:00.658Z,0.10
2022-09-04T18:09:58.330Z,0.17
2022-09-04T18:12:31.299Z,0.32
2022-09-04T18:15:32.278Z,0.38
2022-09-04T18:18:24.992Z,0.10
2022-09-04T18:21:09.039Z,0.90
2022-09-04T18:23:56.041Z,0.75
2022-09-04T18:26:41.578Z,0.38
2022-09-04T18:30:13.888Z,0.30
2022-09-04T18:37:06.871Z,1.75
2022-09-04T18:37:17.610Z,0.20
2022-09-04T18:38:32.179Z,0.20
2022-09-04T18:45:59.186Z,0.22
2022-09-04T18:50:32.228Z,0.30
2022-09-04T18:50:32.526Z,0.10
2022-09-04T18:50:33.447Z,0.10
2022-09-04T18:52:44.341Z,0.30
2022-09-04T18:55:22.938Z,0.10
2022-09-04T18:57:54.037Z,0.13
2022-09-04T19:00:53.089Z,0.10
2022-09-04T19:03:30.029Z,0.28
2022-09-04T19:06:00.563Z,0.22
2022-09-04T19:08:33.215Z,0.45
2022-09-04T19:11:20.523Z,0.38
2022-09-04T19:13:53.325Z,0.20
2022-09-04T19:16:50.622Z,0.32
2022-09-04T19:19:31.853Z,0.10
2022-09-04T19:22:05.524Z,0.55
2022-09-04T19:24:43.386Z,0.40
2022-09-04T19:27:28.186Z,0.17
2022-09-04T19:30:23.861Z,0.10
2022-09-04T19:33:02.589Z,0.17
2022-09-04T19:35:32.304Z,0.55
2022-09-04T19:43:30.478Z,0.20
2022-09-04T19:46:07.545Z,0.20
2022-09-04T19:46:13.203Z,0.30
2022-09-04T19:47:09.583Z,0.28
2022-09-04T19:53:18.830Z,0.20
2022-09-04T19:53:29.900Z,0.10
2022-09-04T19:55:47.958Z,0.30
2022-09-04T19:58:14.599Z,0.10
2022-09-04T20:01:05.513Z,0.30
2022-09-04T20:03:49.387Z,0.20
2022-09-04T20:06:21.421Z,0.10
2022-09-04T20:08:53.121Z,0.20
2022-09-04T20:11:51.135Z,0.20
2022-09-04T20:14:26.648Z,0.50
2022-09-04T20:17:25.275Z,0.30
2022-09-04T20:19:54.982Z,0.20
2022-09-04T20:22:30.248Z,0.85
2022-09-04T20:25:18.961Z,1.50
2022-09-04T20:27:55.151Z,0.32
2022-09-04T20:30:24.800Z,0.10
2022-09-04T20:33:11.623Z,0.20
2022-09-04T20:35:41.806Z,1.48
2022-09-04T20:38:32.630Z,0.15
2022-09-04T20:41:27.612Z,0.15
2022-09-04T20:44:13.716Z,0.22
2022-09-04T20:52:45.079Z,0.10
2022-09-04T20:52:50.935Z,0.20
2022-09-04T20:53:00.391Z,0.30
2022-09-04T20:55:29.168Z,0.13
2022-09-04T21:01:56.415Z,0.10
2022-09-04T21:03:17.496Z,0.20
2022-09-04T21:04:00.256Z,0.10
2022-09-04T21:06:38.434Z,0.10
2022-09-04T21:09:35.482Z,0.10
2022-09-04T21:12:24.316Z,0.25
2022-09-04T21:14:55.830Z,0.63
2022-09-04T21:17:48.119Z,0.13
2022-09-04T21:20:30.052Z,0.20
2022-09-04T21:23:05.597Z,0.30
2022-09-04T21:25:47.398Z,0.20
2022-09-04T21:28:29.159Z,0.32
2022-09-04T21:31:01.908Z,0.10
2022-09-04T21:33:36.453Z,0.20
2022-09-04T21:36:26.411Z,0.38
2022-09-04T21:39:03.323Z,0.20
2022-09-04T21:41:57.328Z,0.13
2022-09-04T21:44:51.840Z,0.20
2022-09-04T21:47:31.165Z,0.10
2022-09-04T21:50:16.541Z,0.10
2022-09-04T21:53:11.716Z,0.35
2022-09-04T22:00:50.324Z,0.10
2022-09-04T22:02:35.547Z,0.25
2022-09-04T22:02:45.497Z,0.10
2022-09-04T22:05:31.388Z,0.20
2022-09-04T22:13:28.869Z,0.20
2022-09-04T22:13:41.992Z,0.10
2022-09-04T22:14:45.233Z,0.17
2022-09-04T22:17:33.413Z,0.10
2022-09-04T22:20:43.312Z,0.25
2022-09-04T22:23:29.280Z,0.17
2022-09-04T22:26:09.169Z,0.13
2022-09-04T22:28:59.608Z,0.20
2022-09-04T22:31:29.465Z,0.20
2022-09-04T22:34:14.896Z,0.55
2022-09-04T22:37:00.872Z,0.40
2022-09-04T22:39:35.025Z,1.00
2022-09-04T22:42:32.678Z,0.10
2022-09-04T22:45:36.645Z,0.10
2022-09-04T22:48:31.502Z,0.20
2022-09-04T22:51:30.690Z,0.30
2022-09-04T22:54:28.578Z,0.55
2022-09-04T22:57:09.414Z,0.10
2022-09-04T22:59:43.729Z,0.10
2022-09-04T23:02:55.389Z,0.17
2022-09-04T23:05:21.367Z,0.10
2022-09-04T23:13:53.495Z,0.20
2022-09-04T23:13:54.382Z,0.63
2022-09-04T23:14:21.693Z,0.17
2022-09-04T23:17:03.473Z,0.28
2022-09-04T23:26:33.348Z,1.20
2022-09-04T23:26:45.674Z,0.20
2022-09-04T23:26:46.614Z,0.10
2022-09-04T23:29:45.305Z,0.22
2022-09-04T23:32:22.279Z,0.20
2022-09-04T23:35:13.778Z,0.30
2022-09-04T23:38:09.207Z,0.15
2022-09-04T23:40:47.270Z,0.45
2022-09-04T23:43:42.373Z,0.32
2022-09-04T23:46:09.226Z,0.43
2022-09-04T23:49:06.573Z,0.10
2022-09-04T23:51:44.951Z,0.20
2022-09-04T23:54:30.364Z,0.17
2022-09-04T23:57:11.131Z,0.25
2022-09-04T23:59:56.582Z,0.47
